Estación Meteorológica Peña el Pijo (Robertgarden) [ 02/03/23 03:16:19 CET ]

Fecha Hora Presion(HPa) Temp (°C) Humedad % Rocio (°C) Viento ( m/s) Direccion Lluvia 1Hora(mm) Lluvia 24H(mm) LLuvia Total(mm)
2012-Jun-29 01:01:12 1010.600 21.1 37 5.8         167.83
2012-Jun-29 02:01:15 1010.500 21.0 36 5.3         167.83
2012-Jun-29 03:03:13 1010.000 20.7 36 5.0         167.83
2012-Jun-29 04:01:13 1009.700 17.9 45 5.7         167.83
2012-Jun-29 05:01:14 1009.000 16.2 51 6.0         167.83
2012-Jun-29 06:01:16 1009.000 15.4 55 6.4         167.83
2012-Jun-29 07:01:18 1009.200 14.9 59 7.0         167.83
2012-Jun-29 08:01:17 1009.600 16.3 62 9.0         167.83
2012-Jun-29 09:01:21 1009.700 22.6 57 13.6         167.83
2012-Jun-29 10:01:13 1009.700 29.8 26 8.0 2.6 W     167.83
2012-Jun-29 11:01:13 1009.700 33.1 16 3.3 1.0 NNE     167.83
2012-Jun-29 12:01:17 1009.900 35.4 12 1.1         167.83
2012-Jun-29 13:01:18 1009.700 36.6 10 0.1         167.83
2012-Jun-29 14:01:14 1009.700 37.6 10 0.9 1.6 WSW     167.83
2012-Jun-29 15:01:16 1009.600 37.6 - -         167.83
2012-Jun-29 16:01:14 1009.200 38.7 - - 0.8 ENE     167.83
2012-Jun-29 17:01:17 1009.200 38.9 - - 0.8 WSW     167.83
2012-Jun-29 18:01:15 1009.000 37.5 10 0.8         167.83
2012-Jun-29 19:01:11 1009.000 35.2 13 2.0         167.83
2012-Jun-29 20:01:16 1009.300 33.1 14 1.4         167.83
2012-Jun-29 21:01:11 1010.100 29.4 20 4.1         167.83
2012-Jun-29 22:01:11 1010.300 25.9 28 5.9         167.83
2012-Jun-29 23:01:14 1010.900 22.1 35 5.8         167.83

Temperatura Máxima:38°    Temperatura Mínima:14°
Presión Máxima:1010.900 Hpa    Presión Mínima:1009.000 Hpa


Volver